createdAt,value
2022-08-17T00:00:42.790Z,22.40
2022-08-17T00:03:15.614Z,22.40
2022-08-17T00:05:49.462Z,22.40
2022-08-17T00:08:22.274Z,22.40
2022-08-17T00:10:50.867Z,22.50
2022-08-17T00:16:05.612Z,22.40
2022-08-17T00:19:02.418Z,22.40
2022-08-17T00:21:25.377Z,22.40
2022-08-17T00:23:55.503Z,22.40
2022-08-17T00:26:43.578Z,22.30
2022-08-17T00:29:19.347Z,22.30
2022-08-17T00:31:48.395Z,22.30
2022-08-17T00:34:16.713Z,22.20
2022-08-17T00:36:44.775Z,22.20
2022-08-17T00:39:14.146Z,22.10
2022-08-17T00:41:42.758Z,22.10
2022-08-17T00:44:12.238Z,22.00
2022-08-17T00:46:43.869Z,22.00
2022-08-17T00:49:13.769Z,22.00
2022-08-17T00:51:46.552Z,22.10
2022-08-17T00:54:20.191Z,22.10
2022-08-17T00:56:55.029Z,22.10
2022-08-17T00:59:26.931Z,22.20
2022-08-17T01:01:55.122Z,22.20
2022-08-17T01:04:24.488Z,22.20
2022-08-17T01:06:53.110Z,22.30
2022-08-17T01:09:22.614Z,22.30
2022-08-17T01:11:52.338Z,22.30
2022-08-17T01:14:21.498Z,22.30
2022-08-17T01:16:51.656Z,22.30
2022-08-17T01:19:23.310Z,22.30
2022-08-17T01:21:56.116Z,22.40
2022-08-17T01:24:25.726Z,22.40
2022-08-17T01:26:53.791Z,22.40
2022-08-17T01:29:25.429Z,22.40
2022-08-17T01:31:57.699Z,22.40
2022-08-17T01:34:28.252Z,22.40
2022-08-17T01:37:11.667Z,22.40
2022-08-17T01:39:45.553Z,22.40
2022-08-17T01:42:21.561Z,22.30
2022-08-17T01:44:50.818Z,22.30
2022-08-17T01:47:18.866Z,22.20
2022-08-17T01:49:47.582Z,22.20
2022-08-17T01:52:16.511Z,22.20
2022-08-17T01:54:48.975Z,22.20
2022-08-17T01:57:17.004Z,22.20
2022-08-17T01:59:45.061Z,22.20
2022-08-17T02:02:13.065Z,22.20
2022-08-17T02:04:59.755Z,22.30
2022-08-17T02:07:27.943Z,22.30
2022-08-17T02:09:57.619Z,22.30
2022-08-17T02:12:37.839Z,22.30
2022-08-17T02:15:12.325Z,22.30
2022-08-17T02:17:41.587Z,22.30
2022-08-17T02:20:11.226Z,22.30
2022-08-17T02:22:42.452Z,22.30
2022-08-17T02:25:14.364Z,22.20
2022-08-17T02:27:42.418Z,22.20
2022-08-17T02:30:59.655Z,22.20
2022-08-17T02:33:04.185Z,22.10
2022-08-17T02:35:34.365Z,22.10
2022-08-17T02:38:02.492Z,22.10
2022-08-17T02:40:36.206Z,22.00
2022-08-17T02:43:05.199Z,22.00
2022-08-17T02:45:33.333Z,22.00
2022-08-17T02:48:01.381Z,22.00
2022-08-17T02:50:29.484Z,22.00
2022-08-17T02:53:02.458Z,21.90
2022-08-17T02:55:34.853Z,21.90
2022-08-17T02:58:03.740Z,21.90
2022-08-17T03:00:34.331Z,21.90
2022-08-17T03:03:04.093Z,21.90
2022-08-17T03:05:33.865Z,21.90
2022-08-17T03:08:02.010Z,21.90
2022-08-17T03:10:31.115Z,22.00
2022-08-17T03:13:01.606Z,22.00
2022-08-17T03:15:33.459Z,22.00
2022-08-17T03:18:03.687Z,21.90
2022-08-17T03:20:34.045Z,21.90
2022-08-17T03:23:03.158Z,21.90
2022-08-17T03:25:33.377Z,21.80
2022-08-17T03:28:04.724Z,21.80
2022-08-17T03:30:33.106Z,21.70
2022-08-17T03:33:03.476Z,21.80
2022-08-17T03:35:34.877Z,21.70
2022-08-17T03:38:03.054Z,21.70
2022-08-17T03:40:55.622Z,21.70
2022-08-17T03:43:22.944Z,21.70
2022-08-17T03:46:11.039Z,21.70
2022-08-17T03:49:14.533Z,21.80
2022-08-17T03:52:00.087Z,21.80
2022-08-17T03:54:45.628Z,21.80
2022-08-17T03:57:14.311Z,21.80
2022-08-17T03:59:45.044Z,21.80
2022-08-17T04:02:19.196Z,21.80
2022-08-17T04:04:50.748Z,21.80
2022-08-17T04:07:19.568Z,21.80
2022-08-17T04:09:47.723Z,21.70
2022-08-17T04:12:16.874Z,21.70
2022-08-17T04:14:51.856Z,21.70
2022-08-17T04:17:23.841Z,21.70
2022-08-17T04:19:51.984Z,21.70
2022-08-17T04:22:30.626Z,21.70
2022-08-17T04:25:06.460Z,21.70
2022-08-17T04:27:34.604Z,21.70
2022-08-17T04:30:06.989Z,21.70
2022-08-17T04:33:02.905Z,21.80
2022-08-17T04:35:38.464Z,21.80
2022-08-17T04:38:07.321Z,21.80
2022-08-17T04:40:53.476Z,21.80
2022-08-17T04:43:23.658Z,21.80
2022-08-17T04:45:57.017Z,21.80
2022-08-17T04:48:35.625Z,21.90
2022-08-17T04:51:07.173Z,21.80
2022-08-17T04:53:35.238Z,21.90
2022-08-17T04:56:03.641Z,21.80
2022-08-17T04:58:31.696Z,21.80
2022-08-17T05:01:01.381Z,21.80
2022-08-17T05:03:29.776Z,21.80
2022-08-17T05:05:57.884Z,21.80
2022-08-17T05:08:25.948Z,21.80
2022-08-17T05:10:54.071Z,21.80
2022-08-17T05:13:25.004Z,21.80
2022-08-17T05:15:56.600Z,21.90
2022-08-17T05:18:26.783Z,21.90
2022-08-17T05:20:55.303Z,21.90
2022-08-17T05:23:25.387Z,21.90
2022-08-17T05:25:56.356Z,21.90
2022-08-17T05:28:27.646Z,22.00
2022-08-17T05:31:00.209Z,22.00
2022-08-17T05:33:31.723Z,22.00
2022-08-17T05:36:00.850Z,22.00
2022-08-17T05:38:30.758Z,22.00
2022-08-17T05:40:59.760Z,22.00
2022-08-17T05:43:30.014Z,22.10
2022-08-17T05:46:04.169Z,22.10
2022-08-17T05:48:39.916Z,22.10
2022-08-17T05:51:33.009Z,22.20
2022-08-17T05:54:10.863Z,22.20
2022-08-17T05:57:00.996Z,22.20
2022-08-17T05:59:36.560Z,22.30
2022-08-17T06:02:16.712Z,22.40
2022-08-17T06:05:01.625Z,22.40
2022-08-17T06:07:35.972Z,22.50
2022-08-17T06:10:09.849Z,22.60
2022-08-17T06:12:47.633Z,22.70
2022-08-17T06:15:26.371Z,22.70
2022-08-17T06:17:58.732Z,22.80
2022-08-17T06:20:33.253Z,22.80
2022-08-17T06:23:07.001Z,22.90
2022-08-17T06:25:39.168Z,23.00
2022-08-17T06:28:25.220Z,23.00
2022-08-17T06:38:40.175Z,23.20
2022-08-17T06:55:37.915Z,23.70
2022-08-17T06:58:12.403Z,23.80
2022-08-17T07:00:47.681Z,23.90
2022-08-17T07:03:21.530Z,24.00
2022-08-17T07:06:06.520Z,24.10
2022-08-17T07:08:48.359Z,24.20
2022-08-17T07:11:27.272Z,24.40
2022-08-17T07:14:05.217Z,24.50
2022-08-17T07:16:41.151Z,24.60
2022-08-17T07:19:11.351Z,24.70
2022-08-17T07:30:16.428Z,25.30
2022-08-17T07:32:48.859Z,25.50
2022-08-17T07:35:23.276Z,25.70
2022-08-17T07:38:24.973Z,25.90
2022-08-17T07:41:03.557Z,26.00
2022-08-17T07:43:35.383Z,26.10
2022-08-17T07:46:36.250Z,26.20
2022-08-17T07:49:24.526Z,26.30
2022-08-17T07:52:13.412Z,26.30
2022-08-17T07:54:48.350Z,26.40
2022-08-17T07:57:31.904Z,26.50
2022-08-17T08:00:26.703Z,26.70
2022-08-17T08:03:27.223Z,26.90
2022-08-17T08:06:00.281Z,27.10
2022-08-17T08:08:33.544Z,27.40
2022-08-17T08:11:10.589Z,27.60
2022-08-17T08:13:45.133Z,27.70
2022-08-17T08:16:24.490Z,27.80
2022-08-17T08:18:58.081Z,28.00
2022-08-17T08:21:36.484Z,28.10
2022-08-17T08:24:23.187Z,28.20
2022-08-17T08:26:58.043Z,28.30
2022-08-17T08:29:37.954Z,28.40
2022-08-17T08:32:12.827Z,28.50
2022-08-17T08:35:02.490Z,28.60
2022-08-17T08:37:43.112Z,28.70
2022-08-17T08:40:25.376Z,28.80
2022-08-17T08:43:02.351Z,28.90
2022-08-17T08:45:39.293Z,29.00
2022-08-17T08:48:22.856Z,29.10
2022-08-17T08:51:15.719Z,29.20
2022-08-17T08:53:51.984Z,29.30
2022-08-17T08:56:28.715Z,29.30
2022-08-17T08:59:04.755Z,29.40
2022-08-17T09:01:47.027Z,29.40
2022-08-17T09:05:13.345Z,29.40
2022-08-17T09:07:56.289Z,29.60
2022-08-17T09:10:30.759Z,29.70
2022-08-17T09:13:10.215Z,29.70
2022-08-17T09:15:44.893Z,29.60
2022-08-17T09:19:02.280Z,29.70
2022-08-17T09:21:15.213Z,29.90
2022-08-17T09:23:59.664Z,30.10
2022-08-17T09:26:32.870Z,30.20
2022-08-17T09:29:06.568Z,30.20
2022-08-17T09:31:49.032Z,30.40
2022-08-17T09:34:29.522Z,30.50
2022-08-17T09:37:12.275Z,30.60
2022-08-17T09:39:47.647Z,30.80
2022-08-17T09:42:22.769Z,30.90
2022-08-17T09:44:59.263Z,31.00
2022-08-17T09:47:31.725Z,31.20
2022-08-17T09:50:07.031Z,31.30
2022-08-17T09:52:36.400Z,31.30
2022-08-17T09:55:07.354Z,31.10
2022-08-17T09:57:55.776Z,31.10
2022-08-17T10:00:28.039Z,31.20
2022-08-17T10:03:09.701Z,31.30
2022-08-17T10:05:46.490Z,31.40
2022-08-17T10:08:27.832Z,31.40
2022-08-17T10:11:22.506Z,31.50
2022-08-17T10:14:36.513Z,31.50
2022-08-17T10:17:04.490Z,31.60
2022-08-17T10:19:39.087Z,31.80
2022-08-17T10:22:37.943Z,31.80
2022-08-17T10:25:48.696Z,31.70
2022-08-17T10:28:28.845Z,31.70
2022-08-17T10:31:30.987Z,31.60
2022-08-17T10:34:00.621Z,31.50
2022-08-17T10:36:46.321Z,31.20
2022-08-17T10:39:26.375Z,31.20
2022-08-17T10:42:00.585Z,31.40
2022-08-17T10:44:42.399Z,31.40
2022-08-17T10:47:12.787Z,31.50
2022-08-17T10:49:47.465Z,31.50
2022-08-17T10:52:50.111Z,31.50
2022-08-17T10:55:20.425Z,31.40
2022-08-17T10:57:50.714Z,31.30
2022-08-17T11:01:12.550Z,31.20
2022-08-17T11:03:54.934Z,31.10
2022-08-17T11:06:33.230Z,31.00
2022-08-17T11:09:20.984Z,30.80
2022-08-17T11:12:15.773Z,30.60
2022-08-17T11:15:10.991Z,30.60
2022-08-17T11:17:53.630Z,30.50
2022-08-17T11:20:52.628Z,30.40
2022-08-17T11:23:48.357Z,30.30
2022-08-17T11:26:26.100Z,30.20
2022-08-17T11:28:59.551Z,30.20
2022-08-17T11:31:38.550Z,30.50
2022-08-17T11:34:15.148Z,30.90
2022-08-17T11:37:25.127Z,31.40
2022-08-17T11:40:33.878Z,31.80
2022-08-17T11:43:21.269Z,32.30
2022-08-17T11:46:11.991Z,32.50
2022-08-17T11:49:06.509Z,32.60
2022-08-17T11:52:10.063Z,32.60
2022-08-17T11:54:45.104Z,32.40
2022-08-17T11:58:01.584Z,32.20
2022-08-17T12:00:56.516Z,31.90
2022-08-17T12:03:54.426Z,31.80
2022-08-17T12:06:41.036Z,31.80
2022-08-17T12:09:14.832Z,31.80
2022-08-17T12:12:01.522Z,31.70
2022-08-17T12:15:06.229Z,31.60
2022-08-17T12:17:40.417Z,31.60
2022-08-17T12:20:15.064Z,31.50
2022-08-17T12:22:53.404Z,31.40
2022-08-17T12:25:25.793Z,31.40
2022-08-17T12:28:06.770Z,31.30
2022-08-17T12:30:38.383Z,31.40
2022-08-17T12:33:25.507Z,31.60
2022-08-17T12:36:02.985Z,31.90
2022-08-17T12:38:34.782Z,32.10
2022-08-17T12:41:25.366Z,32.10
2022-08-17T12:44:02.629Z,32.00
2022-08-17T12:46:35.906Z,31.80
2022-08-17T12:49:15.176Z,31.80
2022-08-17T12:51:47.936Z,32.00
2022-08-17T12:54:27.529Z,32.30
2022-08-17T12:56:55.925Z,32.50
2022-08-17T12:59:30.311Z,32.70
2022-08-17T13:02:00.921Z,32.90
2022-08-17T13:04:29.660Z,32.90
2022-08-17T13:06:59.878Z,32.90
2022-08-17T13:09:35.992Z,32.90
2022-08-17T13:12:09.493Z,32.90
2022-08-17T13:14:37.706Z,32.90
2022-08-17T13:17:13.326Z,33.00
2022-08-17T13:19:49.974Z,33.10
2022-08-17T13:22:23.167Z,33.20
2022-08-17T13:24:54.475Z,33.30
2022-08-17T13:27:25.063Z,33.30
2022-08-17T13:29:57.215Z,33.30
2022-08-17T13:32:39.905Z,33.40
2022-08-17T13:35:39.272Z,33.40
2022-08-17T13:38:10.596Z,33.40
2022-08-17T13:40:45.589Z,33.20
2022-08-17T13:43:13.697Z,33.20
2022-08-17T13:45:52.248Z,33.10
2022-08-17T13:48:32.583Z,33.20
2022-08-17T13:51:15.148Z,33.40
2022-08-17T13:53:55.952Z,33.50
2022-08-17T13:56:39.144Z,33.60
2022-08-17T13:59:11.261Z,33.50
2022-08-17T14:01:42.381Z,33.50
2022-08-17T14:04:13.991Z,33.40
2022-08-17T14:06:49.349Z,33.30
2022-08-17T14:09:23.201Z,33.30
2022-08-17T14:11:52.244Z,33.20
2022-08-17T14:14:23.164Z,33.20
2022-08-17T14:16:51.732Z,33.20
2022-08-17T14:19:22.884Z,33.20
2022-08-17T14:21:52.135Z,33.20
2022-08-17T14:24:24.817Z,33.40
2022-08-17T14:26:53.884Z,33.50
2022-08-17T14:29:23.237Z,33.60
2022-08-17T14:31:54.153Z,33.60
2022-08-17T14:34:25.290Z,33.60
2022-08-17T14:36:53.903Z,33.60
2022-08-17T14:39:22.182Z,33.60
2022-08-17T14:41:56.615Z,33.60
2022-08-17T14:44:24.812Z,33.50
2022-08-17T14:46:52.903Z,33.50
2022-08-17T14:49:20.907Z,33.40
2022-08-17T14:51:50.382Z,33.40
2022-08-17T14:54:33.957Z,33.30
2022-08-17T14:57:17.722Z,33.30
2022-08-17T14:59:54.680Z,33.30
2022-08-17T15:02:30.115Z,33.20
2022-08-17T15:05:01.741Z,33.10
2022-08-17T15:07:31.618Z,33.10
2022-08-17T15:10:01.578Z,33.10
2022-08-17T15:12:33.763Z,33.10
2022-08-17T15:15:32.160Z,33.00
2022-08-17T15:18:01.004Z,33.00
2022-08-17T15:20:30.740Z,32.90
2022-08-17T15:23:04.295Z,32.90
2022-08-17T15:25:33.873Z,32.90
2022-08-17T15:28:02.686Z,32.80
2022-08-17T15:30:31.667Z,32.80
2022-08-17T15:33:00.886Z,32.80
2022-08-17T15:35:32.159Z,32.80
2022-08-17T15:38:10.526Z,32.80
2022-08-17T15:40:41.324Z,32.70
2022-08-17T15:43:11.598Z,32.70
2022-08-17T15:45:40.887Z,32.70
2022-08-17T15:48:09.291Z,32.60
2022-08-17T15:50:37.997Z,32.50
2022-08-17T15:53:07.600Z,32.50
2022-08-17T15:55:38.292Z,32.40
2022-08-17T15:58:07.002Z,32.40
2022-08-17T16:00:48.848Z,32.30
2022-08-17T16:04:01.772Z,32.30
2022-08-17T16:06:13.716Z,32.20
2022-08-17T16:08:44.805Z,32.10
2022-08-17T16:11:13.888Z,32.10
2022-08-17T16:13:53.078Z,32.10
2022-08-17T16:16:24.270Z,32.00
2022-08-17T16:18:54.699Z,31.90
2022-08-17T16:21:27.101Z,31.80
2022-08-17T16:23:59.604Z,31.70
2022-08-17T16:26:28.310Z,31.50
2022-08-17T16:28:57.325Z,31.40
2022-08-17T16:31:26.051Z,31.20
2022-08-17T16:34:15.858Z,31.10
2022-08-17T16:36:54.657Z,31.00
2022-08-17T16:39:26.682Z,30.90
2022-08-17T16:41:55.666Z,30.80
2022-08-17T16:44:23.722Z,30.70
2022-08-17T16:46:51.805Z,30.60
2022-08-17T16:49:24.498Z,30.60
2022-08-17T16:52:05.243Z,30.60
2022-08-17T16:54:35.461Z,30.50
2022-08-17T16:57:05.093Z,30.50
2022-08-17T16:59:41.031Z,30.40
2022-08-17T17:02:14.032Z,30.40
2022-08-17T17:04:47.717Z,30.30
2022-08-17T17:07:39.861Z,30.20
2022-08-17T17:10:11.638Z,30.10
2022-08-17T17:13:02.472Z,30.00
2022-08-17T17:15:39.599Z,29.90
2022-08-17T17:18:12.185Z,29.80
2022-08-17T17:20:48.639Z,29.70
2022-08-17T17:23:29.124Z,29.60
2022-08-17T17:26:06.072Z,29.60
2022-08-17T17:28:44.138Z,29.50
2022-08-17T17:31:16.764Z,29.40
2022-08-17T17:33:48.283Z,29.30
2022-08-17T17:36:27.486Z,29.30
2022-08-17T17:39:01.351Z,29.30
2022-08-17T17:41:35.399Z,29.20
2022-08-17T17:44:09.042Z,29.10
2022-08-17T17:46:40.819Z,29.00
2022-08-17T17:49:10.599Z,28.90
2022-08-17T17:52:02.855Z,28.80
2022-08-17T17:54:53.978Z,28.70
2022-08-17T17:57:36.471Z,28.70
2022-08-17T18:00:17.881Z,28.50
2022-08-17T18:02:57.243Z,28.50
2022-08-17T18:05:48.363Z,28.40
2022-08-17T18:08:32.328Z,28.40
2022-08-17T18:11:11.451Z,28.30
2022-08-17T18:13:55.059Z,28.20
2022-08-17T18:16:23.677Z,28.10
2022-08-17T18:18:53.552Z,28.10
2022-08-17T18:21:24.830Z,28.00
2022-08-17T18:23:58.127Z,27.90
2022-08-17T18:26:42.042Z,27.80
2022-08-17T18:29:23.503Z,27.70
2022-08-17T18:32:18.059Z,27.60
2022-08-17T18:34:48.894Z,27.60
2022-08-17T18:37:42.609Z,27.60
2022-08-17T18:40:32.533Z,27.50
2022-08-17T18:43:08.263Z,27.40
2022-08-17T18:45:41.913Z,27.30
2022-08-17T18:48:20.844Z,27.20
2022-08-17T18:50:53.321Z,27.20
2022-08-17T18:53:35.414Z,27.20
2022-08-17T18:56:26.838Z,27.10
2022-08-17T18:59:17.277Z,27.00
2022-08-17T19:02:03.243Z,26.90
2022-08-17T19:04:38.190Z,26.80
2022-08-17T19:07:26.519Z,26.70
2022-08-17T19:09:59.374Z,26.70
2022-08-17T19:12:34.123Z,26.60
2022-08-17T19:15:03.569Z,26.60
2022-08-17T19:17:40.894Z,26.50
2022-08-17T19:20:16.860Z,26.50
2022-08-17T19:23:14.768Z,26.40
2022-08-17T19:25:48.441Z,26.40
2022-08-17T19:28:24.036Z,26.40
2022-08-17T19:30:57.539Z,26.30
2022-08-17T19:33:27.833Z,26.30
2022-08-17T19:36:06.887Z,26.20
2022-08-17T19:38:47.785Z,26.20
2022-08-17T19:41:23.600Z,26.10
2022-08-17T19:44:23.181Z,26.10
2022-08-17T19:47:00.861Z,26.00
2022-08-17T19:49:45.618Z,26.00
2022-08-17T19:52:41.457Z,26.00
2022-08-17T19:55:20.641Z,25.90
2022-08-17T19:58:00.311Z,25.90
2022-08-17T20:00:29.267Z,25.80
2022-08-17T20:03:06.105Z,25.80
2022-08-17T20:06:08.839Z,25.70
2022-08-17T20:08:30.790Z,25.70
2022-08-17T20:11:03.727Z,25.60
2022-08-17T20:13:37.483Z,25.60
2022-08-17T20:16:06.400Z,25.50
2022-08-17T20:18:44.483Z,25.50
2022-08-17T20:21:22.985Z,25.50
2022-08-17T20:23:55.086Z,25.40
2022-08-17T20:26:27.334Z,25.40
2022-08-17T20:29:39.564Z,25.40
2022-08-17T20:32:26.685Z,25.30
2022-08-17T20:35:20.853Z,25.30
2022-08-17T20:37:57.375Z,25.30
2022-08-17T20:40:30.072Z,25.30
2022-08-17T20:42:59.244Z,25.30
2022-08-17T20:45:55.376Z,25.20
2022-08-17T20:48:38.090Z,25.20
2022-08-17T20:51:28.181Z,25.10
2022-08-17T20:54:35.119Z,25.10
2022-08-17T20:57:06.112Z,25.00
2022-08-17T21:00:14.644Z,25.00
2022-08-17T21:02:44.754Z,24.90
2022-08-17T21:05:57.327Z,24.90
2022-08-17T21:08:30.628Z,24.80
2022-08-17T21:11:00.424Z,24.80
2022-08-17T21:13:54.789Z,24.70
2022-08-17T21:16:32.188Z,24.60
2022-08-17T21:19:22.120Z,24.60
2022-08-17T21:22:01.999Z,24.60
2022-08-17T21:24:54.030Z,24.50
2022-08-17T21:27:35.135Z,24.50
2022-08-17T21:30:42.692Z,24.40
2022-08-17T21:33:20.867Z,24.40
2022-08-17T21:35:52.334Z,24.30
2022-08-17T21:38:24.139Z,24.30
2022-08-17T21:40:55.152Z,24.30
2022-08-17T21:43:29.319Z,24.20
2022-08-17T21:46:02.766Z,24.20
2022-08-17T21:48:33.715Z,24.20
2022-08-17T21:51:10.549Z,24.20
2022-08-17T21:53:45.834Z,24.10
2022-08-17T21:56:24.625Z,24.10
2022-08-17T21:58:58.345Z,24.00
2022-08-17T22:01:30.704Z,24.00
2022-08-17T22:04:03.335Z,24.00
2022-08-17T22:06:38.054Z,24.00
2022-08-17T22:09:20.424Z,23.90
2022-08-17T22:11:58.706Z,23.90
2022-08-17T22:14:52.108Z,23.90
2022-08-17T22:17:22.534Z,23.80
2022-08-17T22:19:53.822Z,23.80
2022-08-17T22:22:30.167Z,23.80
2022-08-17T22:25:00.554Z,23.70
2022-08-17T22:27:54.459Z,23.70
2022-08-17T22:30:35.505Z,23.60
2022-08-17T22:33:37.214Z,23.60
2022-08-17T22:36:14.469Z,23.60
2022-08-17T22:38:43.795Z,23.50
2022-08-17T22:41:43.710Z,23.50
2022-08-17T22:44:23.258Z,23.40
2022-08-17T22:46:59.905Z,23.40
2022-08-17T22:49:32.888Z,23.40
2022-08-17T22:52:19.443Z,23.40
2022-08-17T22:55:09.194Z,23.30
2022-08-17T22:57:51.897Z,23.30
2022-08-17T23:00:33.505Z,23.30
2022-08-17T23:03:14.660Z,23.30
2022-08-17T23:05:47.619Z,23.20
2022-08-17T23:08:21.197Z,23.20
2022-08-17T23:10:50.329Z,23.10
2022-08-17T23:13:18.452Z,23.10
2022-08-17T23:15:48.166Z,23.10
2022-08-17T23:18:17.554Z,23.10
2022-08-17T23:20:47.390Z,23.00
2022-08-17T23:23:18.741Z,23.00
2022-08-17T23:25:49.374Z,23.00
2022-08-17T23:28:17.448Z,23.00
2022-08-17T23:30:47.993Z,22.90
2022-08-17T23:33:22.382Z,22.90
2022-08-17T23:35:52.113Z,22.90
2022-08-17T23:38:20.264Z,22.90
2022-08-17T23:40:48.373Z,22.80
2022-08-17T23:43:24.138Z,22.80
2022-08-17T23:45:55.032Z,22.80
2022-08-17T23:48:35.096Z,22.70
2022-08-17T23:51:09.564Z,22.70
2022-08-17T23:53:40.386Z,22.70
2022-08-17T23:56:11.091Z,22.60
2022-08-17T23:58:42.204Z,22.60
